Nearby METAR Reports

 

GCLP - Las Palmas/Gando, Spain
Distance from station: NE 26km
Updated: 16/02/2019 09:30
Few Clouds
Few Clouds
 Wind from NNW
Wind: NNW 26 km/h
Temperature: 18°C
Dew Point: 12°C
Humidity: 68%
Barometer: 1020 hPa
Clouds: Few Clouds
Visibility: 10 km
Cloud details: Few Clouds 1219 m
2019/02/16 09:30 GCLP 160930Z 34014KT 310V010 9999 FEW040 18/12 Q1020 NOSIG
GCTS - Tenerife Sur/Rei, Spain
Distance from station: WNW 102km
Updated: 16/02/2019 09:30
Partly cloudy
Partly cloudy
 Wind from WNW
Wind: WNW 7 km/h
Temperature: 18°C
Dew Point: 11°C
Humidity: 64%
Barometer: 1020 hPa
Clouds: Partly cloudy
Visibility: 10 km
Cloud details: Few Clouds 914 m
Partly cloudy 1219 m
2019/02/16 09:30 GCTS 160930Z 29004KT 260V340 9999 FEW030 SCT040 18/11 Q1020 NOSIG
 
GCXO - Tenerife/Los Rod, Spain
Distance from station: NW 110km
Updated: 16/02/2019 09:30
Partial fog, Rain, Overcast
Partial fog, Rain, Overcast
 Wind from WNW
Wind: WNW 22 km/h, Gust: 41 km/h
Temperature: 12°C
Dew Point: 12°C
Humidity: 100%
Barometer: 1021 hPa
Summary: Partial fog, Rain
Clouds: Overcast
Visibility: 2 km
Cloud details: Partly cloudy 0 m
Overcast 61 m
2019/02/16 09:30 GCXO 160930Z 30012G22KT 260V340 2000 R12/1400D PRFG RA SCT000 OVC002 12/12 Q1021 WS R30 NOSIG
GCGM - La Gomera Arpt, Spain
Distance from station: W 164km
Updated: 16/02/2019 09:30
Light rain, Partly cloudy
Light rain, Partly cloudy
 Wind from varies
Wind: varies 2 km/h
Temperature: 15°C
Dew Point: 12°C
Humidity: 82%
Barometer: 1021 hPa
Summary: Light rain
Clouds: Partly cloudy
Visibility: 10 km
Cloud details: Few Clouds 610 m
Partly cloudy 1219 m
2019/02/16 09:30 GCGM 160930Z VRB01KT 9999 -RA FEW020 SCT040 15/12 Q1021 RMK R09/VRB01KT ARP/00000KT
 
GCFV - Fuerteventura Ar, Spain
Distance from station: ENE 183km
Updated: 16/02/2019 09:30
Few Clouds
Few Clouds
 Wind from NW
Wind: NW 24 km/h
Temperature: 18°C
Dew Point: 11°C
Humidity: 64%
Barometer: 1019 hPa
Clouds: Few Clouds
Visibility: 10 km
Cloud details: Few Clouds 762 m
2019/02/16 09:30 GCFV 160930Z 32013KT 9999 FEW025 18/11 Q1019
GCHI - Hierro Airport, Spain
Distance from station: W 226km
Updated: 16/02/2019 09:30
Partly cloudy
Partly cloudy
 Wind from NNW
Wind: NNW 31 km/h
Temperature: 19°C
Dew Point: 12°C
Humidity: 64%
Barometer: 1022 hPa
Clouds: Partly cloudy
Visibility: 10 km
Cloud details: Few Clouds 1067 m
Partly cloudy 1524 m
2019/02/16 09:30 GCHI 160930Z 34017KT 9999 FEW035 SCT050 19/12 Q1022
 
GCLA - La Palma Airport, Spain
Distance from station: WNW 233km
Updated: 16/02/2019 09:30
Few Clouds
Few Clouds
 Wind from SSE
Wind: SSE 13 km/h
Temperature: 19°C
Dew Point: 11°C
Humidity: 60%
Barometer: 1021 hPa
Clouds: Few Clouds
Visibility: 10 km
Cloud details: Few Clouds 1067 m
2019/02/16 09:30 GCLA 160930Z 16007KT 110V200 9999 FEW035 19/11 Q1021
GCRR - Arrecife/Lanzaro, Spain
Distance from station: NE 234km
Updated: 16/02/2019 09:30
Few Clouds
Few Clouds
 Wind from NW
Wind: NW 22 km/h
Temperature: 18°C
Dew Point: 13°C
Humidity: 73%
Barometer: 1018 hPa
Clouds: Few Clouds
Visibility: 10 km
Cloud details: Few Clouds 762 m
2019/02/16 09:30 GCRR 160930Z 32012KT 290V350 9999 FEW025 18/13 Q1018
 
LPMA - Funchal/Madeira, Portugal
Distance from station: NNW 556km
Updated: 16/02/2019 09:30
Few Clouds
Few Clouds
 Wind from N
Wind: N 13 km/h
Temperature: 16°C
Dew Point: 11°C
Humidity: 72%
Barometer: 1022 hPa
Clouds: Few Clouds
Visibility: 10 km
Cloud details: Few Clouds 488 m
2019/02/16 09:30 LPMA 160930Z 36007KT 9999 FEW016 16/11 Q1022
LPPS - Porto Santo Isla, Portugal
Distance from station: N 594km
Updated: 16/02/2019 09:30
Few Clouds
Few Clouds
 Wind from E
Wind: E 9 km/h
Temperature: 16°C
Dew Point: 11°C
Humidity: 72%
Barometer: 1022 hPa
Clouds: Few Clouds
Visibility: 10 km
Cloud details: Few Clouds 457 m
2019/02/16 09:30 LPPS 160930Z 10005KT 060V140 9999 FEW015 16/11 Q1022